createdAt,value
2022-10-12T00:01:14.555Z,4.28
2022-10-12T00:06:22.029Z,4.78
2022-10-12T00:08:55.650Z,4.78
2022-10-12T00:11:30.695Z,4.43
2022-10-12T00:14:05.227Z,4.03
2022-10-12T00:16:38.186Z,4.22
2022-10-12T00:19:14.040Z,4.43
2022-10-12T00:21:46.966Z,5.32
2022-10-12T00:26:53.112Z,5.40
2022-10-12T00:29:27.356Z,4.60
2022-10-12T00:32:00.405Z,3.58
2022-10-12T00:34:33.385Z,7.50
2022-10-12T00:37:06.147Z,6.68
2022-10-12T00:39:39.151Z,3.20
2022-10-12T00:44:48.637Z,5.07
2022-10-12T00:47:26.965Z,4.82
2022-10-12T00:50:08.249Z,5.05
2022-10-12T00:52:45.614Z,4.47
2022-10-12T00:55:22.509Z,4.60
2022-10-12T00:57:56.488Z,4.03
2022-10-12T01:00:30.792Z,6.00
2022-10-12T01:03:04.577Z,4.68
2022-10-12T01:05:40.456Z,4.45
2022-10-12T01:08:13.527Z,3.45
2022-10-12T01:10:46.200Z,5.38
2022-10-12T01:13:19.659Z,5.57
2022-10-12T01:15:59.220Z,9.32
2022-10-12T01:18:40.905Z,6.13
2022-10-12T01:21:20.191Z,5.00
2022-10-12T01:24:26.361Z,3.47
2022-10-12T01:27:13.846Z,4.13
2022-10-12T01:30:12.755Z,4.97
2022-10-12T01:33:13.694Z,6.57
2022-10-12T01:35:56.953Z,4.25
2022-10-12T01:41:14.714Z,4.35
2022-10-12T01:43:48.009Z,4.53
2022-10-12T01:46:45.261Z,4.90
2022-10-12T01:49:21.198Z,5.82
2022-10-12T01:52:14.707Z,4.35
2022-10-12T01:57:36.262Z,5.63
2022-10-12T02:00:12.163Z,5.68
2022-10-12T02:02:55.341Z,6.03
2022-10-12T02:05:36.863Z,8.60
2022-10-12T02:08:19.032Z,5.20
2022-10-12T02:10:58.155Z,4.43
2022-10-12T02:13:36.965Z,5.68
2022-10-12T02:16:14.452Z,5.35
2022-10-12T02:18:54.397Z,4.10
2022-10-12T02:21:34.305Z,4.35
2022-10-12T02:24:11.311Z,3.67
2022-10-12T02:26:48.633Z,3.97
2022-10-12T02:29:26.075Z,4.38
2022-10-12T02:32:06.520Z,5.50
2022-10-12T02:34:47.030Z,4.43
2022-10-12T02:37:28.364Z,9.18
2022-10-12T02:40:09.254Z,6.13
2022-10-12T02:43:09.230Z,4.68
2022-10-12T02:45:45.206Z,4.45
2022-10-12T02:48:23.402Z,5.32
2022-10-12T02:50:59.688Z,3.83
2022-10-12T02:53:32.652Z,5.00
2022-10-12T02:56:08.408Z,7.00
2022-10-12T02:58:43.222Z,5.45
2022-10-12T03:01:17.430Z,6.25
2022-10-12T03:03:50.456Z,6.75
2022-10-12T03:06:25.060Z,6.85
2022-10-12T03:08:58.199Z,6.07
2022-10-12T03:11:31.029Z,6.32
2022-10-12T03:14:03.788Z,4.28
2022-10-12T03:16:37.372Z,6.47
2022-10-12T03:19:10.538Z,4.82
2022-10-12T03:21:44.789Z,5.93
2022-10-12T03:24:17.601Z,3.80
2022-10-12T03:26:50.482Z,5.15
2022-10-12T03:29:23.379Z,5.30
2022-10-12T03:31:56.092Z,4.40
2022-10-12T03:34:28.893Z,3.38
2022-10-12T03:37:03.364Z,5.60
2022-10-12T03:39:36.130Z,6.03
2022-10-12T03:42:08.938Z,3.75
2022-10-12T03:44:41.587Z,3.88
2022-10-12T03:47:14.339Z,4.95
2022-10-12T03:49:47.142Z,5.68
2022-10-12T03:52:21.274Z,6.03
2022-10-12T03:54:53.909Z,4.25
2022-10-12T03:57:26.904Z,8.00
2022-10-12T03:59:59.529Z,3.53
2022-10-12T04:02:32.308Z,6.07
2022-10-12T04:05:05.685Z,3.65
2022-10-12T04:07:40.397Z,5.65
2022-10-12T04:10:13.416Z,4.63
2022-10-12T04:12:46.489Z,3.70
2022-10-12T04:17:51.943Z,3.55
2022-10-12T04:20:24.693Z,5.75
2022-10-12T04:22:59.325Z,5.75
2022-10-12T04:25:32.120Z,8.95
2022-10-12T04:28:04.890Z,4.45
2022-10-12T04:30:37.814Z,4.53
2022-10-12T04:33:10.619Z,4.03
2022-10-12T04:35:43.708Z,5.50
2022-10-12T04:40:51.190Z,6.57
2022-10-12T04:43:24.041Z,6.32
2022-10-12T04:45:57.549Z,6.43
2022-10-12T04:48:30.306Z,5.63
2022-10-12T04:51:03.096Z,5.07
2022-10-12T04:53:37.252Z,4.13
2022-10-12T04:56:10.130Z,7.95
2022-10-12T04:58:42.851Z,4.88
2022-10-12T05:01:15.641Z,5.15
2022-10-12T05:03:48.425Z,7.03
2022-10-12T05:06:21.358Z,5.90
2022-10-12T05:08:55.504Z,6.47
2022-10-12T05:11:28.239Z,7.18
2022-10-12T05:14:01.052Z,6.90
2022-10-12T05:16:33.804Z,6.20
2022-10-12T05:19:06.629Z,4.05
2022-10-12T05:21:40.463Z,5.10
2022-10-12T05:24:14.774Z,5.25
2022-10-12T05:26:47.558Z,4.22
2022-10-12T05:29:20.362Z,4.72
2022-10-12T05:31:53.400Z,7.32
2022-10-12T05:34:26.188Z,4.63
2022-10-12T05:36:59.485Z,7.35
2022-10-12T05:39:33.967Z,5.35
2022-10-12T05:42:07.112Z,5.28
2022-10-12T05:44:39.755Z,5.03
2022-10-12T05:47:12.433Z,4.43
2022-10-12T05:49:45.570Z,5.10
2022-10-12T05:54:52.605Z,6.65
2022-10-12T05:57:25.438Z,5.15
2022-10-12T05:59:58.232Z,6.53
2022-10-12T06:02:30.892Z,5.75
2022-10-12T06:05:03.740Z,5.45
2022-10-12T06:07:36.398Z,6.03
2022-10-12T06:10:12.083Z,3.85
2022-10-12T06:12:45.273Z,3.65
2022-10-12T06:15:17.999Z,4.70
2022-10-12T06:17:50.663Z,4.18
2022-10-12T06:20:23.390Z,5.75
2022-10-12T06:22:56.063Z,7.22
2022-10-12T06:25:30.102Z,6.28
2022-10-12T06:28:02.807Z,6.90
2022-10-12T06:30:35.573Z,5.72
2022-10-12T06:33:08.354Z,7.45
2022-10-12T06:35:41.137Z,4.43
2022-10-12T06:38:13.884Z,4.93
2022-10-12T06:40:48.006Z,4.85
2022-10-12T06:43:22.630Z,4.57
2022-10-12T06:45:55.237Z,5.53
2022-10-12T06:48:27.878Z,7.10
2022-10-12T06:51:00.694Z,6.45
2022-10-12T06:53:34.971Z,8.10
2022-10-12T06:56:10.765Z,5.32
2022-10-12T06:58:43.444Z,7.55
2022-10-12T07:01:16.814Z,4.75
2022-10-12T07:03:49.520Z,5.05
2022-10-12T07:06:22.171Z,5.15
2022-10-12T07:08:55.529Z,5.28
2022-10-12T07:11:30.188Z,8.00
2022-10-12T07:14:03.010Z,5.93
2022-10-12T07:16:35.976Z,5.18
2022-10-12T07:19:08.949Z,8.40
2022-10-12T07:24:14.781Z,6.78
2022-10-12T07:26:50.573Z,5.30
2022-10-12T07:29:23.332Z,4.88
2022-10-12T07:31:56.305Z,5.22
2022-10-12T07:34:29.830Z,5.43
2022-10-12T07:37:02.918Z,4.97
2022-10-12T07:42:09.643Z,5.55
2022-10-12T07:44:42.338Z,7.40
2022-10-12T07:47:16.383Z,6.13
2022-10-12T07:49:49.130Z,6.18
2022-10-12T07:52:21.833Z,8.00
2022-10-12T07:54:54.720Z,11.10
2022-10-12T07:57:28.751Z,8.52
2022-10-12T08:00:01.842Z,8.13
2022-10-12T08:02:44.380Z,10.68
2022-10-12T08:05:17.799Z,10.43
2022-10-12T08:07:50.881Z,10.27
2022-10-12T08:10:23.781Z,11.60
2022-10-12T08:12:58.105Z,9.63
2022-10-12T08:15:31.072Z,8.80
2022-10-12T08:18:03.816Z,8.27
2022-10-12T08:20:36.489Z,8.90
2022-10-12T08:23:09.195Z,9.25
2022-10-12T08:25:41.897Z,11.73
2022-10-12T08:28:16.041Z,9.73
2022-10-12T08:30:49.209Z,9.75
2022-10-12T08:33:22.026Z,9.00
2022-10-12T08:38:27.530Z,12.90
2022-10-12T08:41:07.655Z,9.85
2022-10-12T08:43:52.109Z,9.07
2022-10-12T08:46:26.249Z,10.77
2022-10-12T08:49:05.136Z,10.23
2022-10-12T08:51:46.929Z,8.40
2022-10-12T08:54:23.357Z,11.52
2022-10-12T08:56:57.263Z,13.68
2022-10-12T08:59:34.753Z,16.58
2022-10-12T09:02:26.735Z,15.05
2022-10-12T09:05:02.411Z,24.13
2022-10-12T09:07:39.420Z,28.85
2022-10-12T09:10:27.778Z,29.00
2022-10-12T09:13:10.250Z,36.15
2022-10-12T09:15:50.476Z,22.23
2022-10-12T09:18:31.552Z,30.20
2022-10-12T09:21:07.208Z,31.67
2022-10-12T09:23:42.146Z,30.17
2022-10-12T09:26:17.477Z,28.17
2022-10-12T09:28:53.531Z,27.40
2022-10-12T09:31:39.849Z,29.52
2022-10-12T09:34:16.780Z,30.58
2022-10-12T09:36:51.918Z,23.38
2022-10-12T09:39:30.660Z,27.48
2022-10-12T09:42:03.746Z,22.88
2022-10-12T09:44:40.279Z,22.73
2022-10-12T09:47:28.194Z,18.10
2022-10-12T09:50:02.387Z,17.75
2022-10-12T09:52:43.872Z,18.85
2022-10-12T09:58:02.609Z,18.58
2022-10-12T10:00:36.641Z,19.10
2022-10-12T10:03:30.640Z,18.83
2022-10-12T10:06:06.080Z,15.60
2022-10-12T10:08:44.261Z,22.20
2022-10-12T10:11:21.510Z,21.10
2022-10-12T10:13:56.134Z,23.38
2022-10-12T10:16:31.629Z,20.83
2022-10-12T10:19:05.700Z,18.10
2022-10-12T10:21:40.655Z,18.88
2022-10-12T10:24:26.503Z,17.67
2022-10-12T10:27:00.884Z,15.52
2022-10-12T10:29:40.114Z,24.65
2022-10-12T10:32:26.817Z,15.10
2022-10-12T10:35:19.200Z,21.45
2022-10-12T10:37:55.938Z,16.65
2022-10-12T10:40:30.093Z,17.65
2022-10-12T10:43:06.464Z,16.23
2022-10-12T10:48:25.632Z,16.90
2022-10-12T10:51:02.844Z,19.88
2022-10-12T10:53:46.720Z,25.60
2022-10-12T10:56:24.890Z,16.08
2022-10-12T10:59:00.900Z,16.85
2022-10-12T11:01:39.423Z,15.05
2022-10-12T11:04:17.525Z,17.35
2022-10-12T11:06:57.388Z,16.23
2022-10-12T11:09:37.832Z,23.27
2022-10-12T11:12:15.433Z,18.10
2022-10-12T11:14:51.824Z,14.43
2022-10-12T11:17:30.462Z,16.85
2022-10-12T11:20:19.926Z,13.05
2022-10-12T11:22:58.969Z,20.05
2022-10-12T11:25:38.444Z,14.45
2022-10-12T11:28:17.433Z,16.48
2022-10-12T11:30:51.943Z,14.48
2022-10-12T11:33:27.892Z,15.90
2022-10-12T11:36:00.904Z,13.27
2022-10-12T11:41:34.934Z,17.30
2022-10-12T11:44:16.307Z,21.13
2022-10-12T11:46:55.887Z,17.80
2022-10-12T11:49:32.461Z,23.25
2022-10-12T11:52:11.400Z,19.77
2022-10-12T11:54:54.038Z,28.48
2022-10-12T11:57:30.626Z,29.05
2022-10-12T12:00:06.966Z,27.30
2022-10-12T12:02:51.131Z,26.20
2022-10-12T12:05:24.175Z,23.48
2022-10-12T12:07:57.621Z,22.05
2022-10-12T12:11:19.339Z,18.77
2022-10-12T12:13:52.025Z,19.27
2022-10-12T12:16:34.836Z,24.35
2022-10-12T12:19:15.455Z,17.58
2022-10-12T12:22:26.496Z,18.45
2022-10-12T12:25:17.651Z,17.17
2022-10-12T12:27:53.951Z,16.63
2022-10-12T12:30:38.525Z,16.17
2022-10-12T12:33:30.894Z,13.50
2022-10-12T12:36:08.506Z,17.15
2022-10-12T12:38:47.387Z,20.55
2022-10-12T12:41:21.730Z,18.17
2022-10-12T12:44:01.111Z,18.65
2022-10-12T12:50:35.556Z,19.60
2022-10-12T12:53:17.892Z,15.45
2022-10-12T12:56:07.391Z,15.05
2022-10-12T12:59:03.358Z,14.82
2022-10-12T13:01:50.035Z,17.17
2022-10-12T13:04:38.279Z,12.00
2022-10-12T13:07:34.595Z,18.00
2022-10-12T13:10:20.134Z,17.88
2022-10-12T13:13:20.741Z,15.13
2022-10-12T13:16:11.817Z,16.00
2022-10-12T13:18:56.858Z,16.42
2022-10-12T13:21:32.558Z,16.33
2022-10-12T13:24:22.885Z,17.25
2022-10-12T13:26:59.221Z,19.02
2022-10-12T13:29:40.053Z,13.93
2022-10-12T13:32:23.625Z,16.85
2022-10-12T13:35:03.358Z,15.27
2022-10-12T13:37:36.560Z,15.95
2022-10-12T13:40:31.391Z,14.05
2022-10-12T13:43:30.819Z,12.32
2022-10-12T13:46:04.151Z,15.50
2022-10-12T13:51:32.367Z,10.67
2022-10-12T13:54:15.657Z,16.17
2022-10-12T13:59:25.873Z,10.85
2022-10-12T14:02:02.195Z,14.68
2022-10-12T14:04:35.972Z,12.52
2022-10-12T14:07:20.274Z,14.38
2022-10-12T14:09:56.340Z,11.27
2022-10-12T14:12:32.351Z,13.82
2022-10-12T14:15:07.466Z,12.20
2022-10-12T14:17:46.138Z,13.73
2022-10-12T14:20:28.545Z,11.20
2022-10-12T14:23:04.391Z,13.27
2022-10-12T14:25:37.684Z,17.05
2022-10-12T14:28:28.317Z,11.10
2022-10-12T14:31:01.068Z,11.60
2022-10-12T14:33:33.823Z,11.18
2022-10-12T14:36:14.575Z,10.90
2022-10-12T14:38:49.833Z,10.07
2022-10-12T14:41:39.650Z,15.00
2022-10-12T14:44:15.932Z,17.83
2022-10-12T14:46:53.468Z,11.70
2022-10-12T14:49:27.868Z,12.88
2022-10-12T14:52:01.426Z,10.30
2022-10-12T14:54:35.714Z,15.95
2022-10-12T14:57:14.125Z,11.77
2022-10-12T14:59:49.181Z,13.55
2022-10-12T15:02:25.447Z,15.25
2022-10-12T15:04:58.706Z,15.82
2022-10-12T15:07:33.493Z,13.48
2022-10-12T15:10:08.949Z,13.75
2022-10-12T15:12:42.217Z,12.65
2022-10-12T15:15:29.018Z,10.98
2022-10-12T15:18:02.679Z,12.82
2022-10-12T15:20:36.316Z,11.95
2022-10-12T15:23:09.023Z,13.02
2022-10-12T15:25:48.817Z,10.65
2022-10-12T15:28:23.098Z,10.60
2022-10-12T15:33:50.122Z,13.95
2022-10-12T15:36:23.092Z,13.15
2022-10-12T15:38:56.139Z,14.00
2022-10-12T15:44:03.421Z,13.85
2022-10-12T15:46:36.289Z,12.57
2022-10-12T15:49:09.807Z,12.50
2022-10-12T15:51:47.706Z,10.98
2022-10-12T15:54:20.609Z,11.75
2022-10-12T15:56:55.791Z,11.60
2022-10-12T15:59:28.972Z,9.85
2022-10-12T16:04:35.665Z,11.40
2022-10-12T16:07:08.568Z,12.18
2022-10-12T16:09:41.247Z,12.43
2022-10-12T16:12:15.952Z,12.57
2022-10-12T16:14:48.956Z,10.95
2022-10-12T16:17:21.801Z,11.60
2022-10-12T16:19:54.769Z,11.18
2022-10-12T16:22:28.007Z,12.43
2022-10-12T16:25:00.746Z,13.18
2022-10-12T16:27:35.122Z,10.02
2022-10-12T16:30:09.804Z,10.98
2022-10-12T16:32:42.660Z,10.73
2022-10-12T16:35:15.811Z,11.00
2022-10-12T16:37:48.580Z,16.35
2022-10-12T16:40:21.442Z,11.43
2022-10-12T16:42:55.889Z,10.07
2022-10-12T16:45:28.707Z,12.48
2022-10-12T16:48:02.059Z,8.40
2022-10-12T16:50:39.892Z,14.57
2022-10-12T16:53:12.743Z,15.13
2022-10-12T16:55:45.550Z,13.63
2022-10-12T16:58:19.829Z,18.80
2022-10-12T17:00:52.751Z,22.10
2022-10-12T17:06:00.305Z,22.23
2022-10-12T17:08:33.998Z,23.63
2022-10-12T17:11:08.367Z,25.98
2022-10-12T17:13:46.695Z,26.98
2022-10-12T17:16:39.101Z,27.90
2022-10-12T17:19:12.010Z,31.90
2022-10-12T17:21:46.377Z,46.97
2022-10-12T17:24:21.095Z,55.33
2022-10-12T17:26:54.477Z,58.33
2022-10-12T17:29:30.966Z,39.53
2022-10-12T17:32:04.580Z,36.58
2022-10-12T17:34:42.385Z,26.42
2022-10-12T17:37:17.987Z,25.10
2022-10-12T17:39:50.924Z,22.00
2022-10-12T17:42:24.801Z,26.33
2022-10-12T17:44:59.215Z,21.92
2022-10-12T17:47:32.074Z,24.48
2022-10-12T17:50:05.419Z,27.25
2022-10-12T17:52:41.000Z,28.17
2022-10-12T17:55:36.138Z,19.75
2022-10-12T17:58:06.545Z,22.85
2022-10-12T18:00:40.717Z,21.15
2022-10-12T18:03:13.461Z,23.83
2022-10-12T18:05:46.131Z,23.83
2022-10-12T18:08:18.929Z,29.35
2022-10-12T18:10:52.128Z,26.38
2022-10-12T18:13:25.050Z,21.70
2022-10-12T18:16:00.164Z,21.17
2022-10-12T18:18:33.285Z,19.65
2022-10-12T18:21:07.444Z,20.52
2022-10-12T18:23:40.561Z,22.77
2022-10-12T18:26:15.238Z,23.10
2022-10-12T18:28:48.461Z,23.48
2022-10-12T18:31:24.617Z,23.60
2022-10-12T18:34:00.838Z,25.63
2022-10-12T18:36:33.808Z,27.30
2022-10-12T18:39:06.570Z,30.33
2022-10-12T18:41:39.480Z,36.72
2022-10-12T18:44:14.928Z,30.13
2022-10-12T18:46:49.320Z,38.05
2022-10-12T18:49:22.479Z,32.55
2022-10-12T18:51:55.127Z,31.98
2022-10-12T18:54:27.850Z,30.35
2022-10-12T18:57:00.665Z,24.90
2022-10-12T18:59:33.516Z,27.30
2022-10-12T19:02:08.522Z,28.35
2022-10-12T19:04:43.940Z,22.88
2022-10-12T19:07:18.040Z,28.70
2022-10-12T19:09:50.949Z,30.67
2022-10-12T19:12:23.704Z,26.08
2022-10-12T19:14:56.504Z,25.40
2022-10-12T19:17:31.998Z,35.47
2022-10-12T19:20:05.451Z,26.98
2022-10-12T19:22:38.212Z,26.15
2022-10-12T19:25:11.048Z,26.63
2022-10-12T19:27:43.739Z,28.98
2022-10-12T19:30:16.860Z,32.40
2022-10-12T19:35:25.047Z,22.73
2022-10-12T19:37:57.782Z,29.83
2022-10-12T19:40:30.637Z,27.73
2022-10-12T19:43:03.286Z,28.48
2022-10-12T19:45:40.258Z,25.08
2022-10-12T19:48:14.237Z,28.17
2022-10-12T19:50:47.035Z,24.33
2022-10-12T19:53:19.919Z,25.80
2022-10-12T19:55:52.877Z,23.45
2022-10-12T19:58:25.656Z,24.13
2022-10-12T20:01:02.256Z,18.55
2022-10-12T20:03:36.799Z,19.27
2022-10-12T20:06:10.086Z,18.80
2022-10-12T20:08:44.894Z,20.08
2022-10-12T20:11:22.486Z,15.60
2022-10-12T20:13:57.454Z,21.17
2022-10-12T20:19:09.637Z,14.85
2022-10-12T20:21:42.402Z,18.40
2022-10-12T20:24:15.172Z,15.43
2022-10-12T20:26:47.933Z,16.17
2022-10-12T20:29:21.523Z,16.83
2022-10-12T20:31:54.338Z,13.02
2022-10-12T20:34:28.435Z,13.75
2022-10-12T20:37:01.286Z,9.98
2022-10-12T20:39:34.721Z,10.55
2022-10-12T20:42:07.824Z,14.00
2022-10-12T20:47:13.940Z,13.57
2022-10-12T20:49:48.508Z,13.57
2022-10-12T20:52:21.749Z,12.85
2022-10-12T20:54:54.753Z,12.70
2022-10-12T20:57:27.638Z,14.88
2022-10-12T21:02:34.110Z,11.83
2022-10-12T21:05:10.218Z,10.27
2022-10-12T21:07:43.034Z,9.77
2022-10-12T21:10:16.127Z,14.00
2022-10-12T21:15:21.739Z,12.55
2022-10-12T21:17:54.437Z,12.98
2022-10-12T21:20:28.682Z,11.95
2022-10-12T21:23:01.712Z,10.77
2022-10-12T21:28:08.134Z,11.13
2022-10-12T21:33:13.785Z,10.60
2022-10-12T21:35:48.146Z,12.30
2022-10-12T21:38:21.002Z,11.75
2022-10-12T21:40:53.795Z,10.82
2022-10-12T21:43:26.612Z,9.63
2022-10-12T21:46:02.830Z,9.85
2022-10-12T21:48:36.348Z,10.20
2022-10-12T21:51:10.645Z,9.48
2022-10-12T21:53:43.723Z,9.00
2022-10-12T22:01:24.977Z,17.83
2022-10-12T22:03:59.356Z,10.32
2022-10-12T22:06:33.756Z,11.90
2022-10-12T22:09:10.159Z,10.63
2022-10-12T22:11:43.924Z,9.10
2022-10-12T22:14:19.423Z,7.72
2022-10-12T22:16:52.241Z,11.63
2022-10-12T22:19:25.030Z,10.88
2022-10-12T22:21:59.204Z,10.43
2022-10-12T22:24:34.134Z,11.88
2022-10-12T22:29:39.854Z,11.13
2022-10-12T22:32:13.326Z,10.38
2022-10-12T22:34:46.125Z,13.27
2022-10-12T22:37:20.159Z,14.65
2022-10-12T22:39:52.853Z,10.75
2022-10-12T22:42:25.548Z,11.35
2022-10-12T22:44:58.394Z,9.55
2022-10-12T22:47:31.105Z,8.55
2022-10-12T22:50:05.155Z,13.98
2022-10-12T22:55:11.992Z,10.70
2022-10-12T22:57:44.726Z,8.60
2022-10-12T23:00:17.938Z,13.30
2022-10-12T23:02:50.702Z,8.77
2022-10-12T23:05:23.401Z,15.38
2022-10-12T23:07:58.803Z,10.18
2022-10-12T23:10:31.692Z,10.57
2022-10-12T23:13:04.679Z,10.30
2022-10-12T23:15:37.481Z,9.90
2022-10-12T23:18:10.202Z,10.15
2022-10-12T23:20:44.012Z,9.65
2022-10-12T23:23:18.129Z,12.20
2022-10-12T23:25:50.852Z,10.55
2022-10-12T23:28:23.700Z,12.75
2022-10-12T23:30:57.179Z,14.60
2022-10-12T23:33:30.263Z,10.90
2022-10-12T23:36:05.539Z,12.73
2022-10-12T23:38:41.101Z,12.05
2022-10-12T23:41:14.689Z,14.32
2022-10-12T23:43:47.460Z,12.73
2022-10-12T23:46:20.912Z,11.95
2022-10-12T23:48:53.661Z,11.00
2022-10-12T23:51:26.568Z,13.32
2022-10-12T23:54:01.126Z,11.60
2022-10-12T23:56:34.030Z,14.75
2022-10-12T23:59:06.789Z,12.80
